EKAH/AAR METAR and TAF weather

Enter ICAO airport designator
Station Type Date Time Source
EKAH METAR 2019/06/26 15:50 UTC NOAA

EKAH 261550Z AUTO 29013KT 9999NDV BKN020/// 19/15 Q1020


Station Type Date Time Source
EKAH Decoded METAR 2019/06/26 15:50 UTC NOAA

Tirstrup, Denmark (EKAH) 56-18N 010-37E 25M
Jun 26, 2019 - 11:50 AM EDT / 2019.06.26 1550 UTC
Wind: from the WNW (290 degrees) at 15 MPH (13 KT):0
Sky conditions: mostly cloudy
Temperature: 66 F (19 C)
Dew Point: 59 F (15 C)
Relative Humidity: 77%
Pressure (altimeter): 30.12 in. Hg (1020 hPa)
ob: EKAH 261550Z AUTO 29013KT 9999NDV BKN020/// 19/15 Q1020
cycle: 16

Station Type Date Time Source
EKAH TAF 2019/06/26 12:31 UTC NOAA

TAF EKAH 261107Z 2612/2712 32012KT 9999 FEW020
TEMPO 2612/2618 32015G25KT

Example: see airport list